createdAt,value
2024-04-06T00:00:46.971Z,282.4
2024-04-06T00:01:46.940Z,282.1
2024-04-06T00:02:46.971Z,288.5
2024-04-06T00:03:53.506Z,274.2
2024-04-06T00:04:46.943Z,257.8
2024-04-06T00:05:46.951Z,244.5
2024-04-06T00:06:46.977Z,273.7
2024-04-06T00:07:46.954Z,293.2
2024-04-06T00:08:46.977Z,275.9
2024-04-06T00:09:46.957Z,278.2
2024-04-06T00:10:46.940Z,283.2
2024-04-06T00:11:46.973Z,263.7
2024-04-06T00:12:46.993Z,260.3
2024-04-06T00:13:46.939Z,289
2024-04-06T00:14:46.972Z,272.2
2024-04-06T00:15:46.975Z,295.6
2024-04-06T00:16:46.973Z,288.2
2024-04-06T00:17:47.806Z,246.7
2024-04-06T00:18:46.948Z,240.7
2024-04-06T00:19:46.977Z,276.8
2024-04-06T00:20:46.970Z,294.9
2024-04-06T00:21:46.949Z,277.9
2024-04-06T00:22:46.976Z,286.4
2024-04-06T00:23:46.951Z,286.4
2024-04-06T00:24:46.994Z,247.4
2024-04-06T00:25:46.945Z,246.2
2024-04-06T00:26:46.980Z,275.4
2024-04-06T00:27:46.946Z,251.9
2024-04-06T00:28:46.987Z,240.5
2024-04-06T00:29:46.934Z,243.6
2024-04-06T00:30:46.942Z,242.7
2024-04-06T00:31:46.970Z,259.5
2024-04-06T00:32:46.980Z,266.8
2024-04-06T00:33:46.970Z,254
2024-04-06T00:34:46.968Z,229.6
2024-04-06T00:35:46.999Z,238.6
2024-04-06T00:36:46.973Z,239.8
2024-04-06T00:37:46.966Z,239.4
2024-04-06T00:38:46.980Z,239.4
2024-04-06T00:39:46.942Z,254
2024-04-06T00:40:46.980Z,259.5
2024-04-06T00:41:46.940Z,242
2024-04-06T00:42:46.979Z,251.2
2024-04-06T00:43:46.965Z,269.1
2024-04-06T00:44:46.962Z,285.6
2024-04-06T00:45:46.943Z,250.7
2024-04-06T00:46:46.937Z,254
2024-04-06T00:47:46.910Z,269.7
2024-04-06T00:48:46.938Z,264.2
2024-04-06T00:49:46.985Z,252.7
2024-04-06T00:50:46.944Z,247.7
2024-04-06T00:51:46.960Z,229.1
2024-04-06T00:52:46.975Z,242.3
2024-04-06T00:53:46.976Z,251.7
2024-04-06T00:54:46.989Z,270
2024-04-06T00:55:46.980Z,239.8
2024-04-06T00:56:46.966Z,241.8
2024-04-06T00:57:47.001Z,250.4
2024-04-06T00:58:46.967Z,241.1
2024-04-06T00:59:46.945Z,244.5
2024-04-06T01:00:46.991Z,243.8
2024-04-06T01:02:00.348Z,245.5
2024-04-06T01:02:46.918Z,246.9
2024-04-06T01:03:46.956Z,246.4
2024-04-06T01:04:46.953Z,240.7
2024-04-06T01:05:46.956Z,250.4
2024-04-06T01:06:46.949Z,229.9
2024-04-06T01:07:46.957Z,235.2
2024-04-06T01:08:46.974Z,245
2024-04-06T01:09:47.007Z,236.9
2024-04-06T01:10:46.981Z,247.2
2024-04-06T01:11:46.931Z,260.3
2024-04-06T01:12:46.978Z,251.2
2024-04-06T01:13:46.971Z,254.3
2024-04-06T01:14:46.958Z,241.6
2024-04-06T01:15:46.957Z,243.2
2024-04-06T01:16:46.977Z,245.2
2024-04-06T01:17:46.942Z,243.8
2024-04-06T01:18:46.909Z,237.1
2024-04-06T01:19:46.976Z,237.5
2024-04-06T01:20:47.004Z,232.2
2024-04-06T01:21:46.951Z,247.4
2024-04-06T01:22:46.975Z,233.6
2024-04-06T01:23:46.977Z,242
2024-04-06T01:24:46.966Z,230.8
2024-04-06T01:25:46.990Z,243.8
2024-04-06T01:26:46.966Z,232.4
2024-04-06T01:27:46.947Z,243.4
2024-04-06T01:28:46.942Z,233.1
2024-04-06T01:29:46.979Z,236.9
2024-04-06T01:30:46.991Z,233.1
2024-04-06T01:31:46.978Z,240.1
2024-04-06T01:32:46.963Z,237.3
2024-04-06T01:33:46.987Z,237.7
2024-04-06T01:34:46.976Z,238.2
2024-04-06T01:35:46.940Z,233.8
2024-04-06T01:36:46.954Z,239.4
2024-04-06T01:37:46.942Z,236.3
2024-04-06T01:38:46.985Z,232.4
2024-04-06T01:39:46.994Z,233.1
2024-04-06T01:40:46.975Z,245.5
2024-04-06T01:41:46.960Z,231.6
2024-04-06T01:42:46.945Z,239.8
2024-04-06T01:43:46.956Z,233.4
2024-04-06T01:44:46.969Z,231.8
2024-04-06T01:45:46.971Z,235.3
2024-04-06T01:46:46.960Z,246.7
2024-04-06T01:47:46.981Z,246
2024-04-06T01:48:46.979Z,243.4
2024-04-06T01:49:46.977Z,247.7
2024-04-06T01:50:46.956Z,240.3
2024-04-06T01:51:46.957Z,247.7
2024-04-06T01:52:46.976Z,236.3
2024-04-06T01:53:46.974Z,250.7
2024-04-06T01:54:46.972Z,251.9
2024-04-06T01:55:46.976Z,291
2024-04-06T01:56:46.980Z,243.8
2024-04-06T01:57:46.952Z,245
2024-04-06T01:58:46.978Z,262.8
2024-04-06T01:59:46.971Z,264
2024-04-06T02:00:46.989Z,263.4
2024-04-06T02:01:46.955Z,246
2024-04-06T02:02:50.294Z,244.8
2024-04-06T02:03:46.970Z,235.2
2024-04-06T02:04:46.969Z,252.7
2024-04-06T02:05:46.956Z,254.8
2024-04-06T02:06:46.982Z,244.1
2024-04-06T02:07:46.959Z,243.2
2024-04-06T02:08:46.953Z,240.5
2024-04-06T02:09:46.951Z,236.3
2024-04-06T02:10:46.945Z,253.5
2024-04-06T02:11:46.975Z,235.9
2024-04-06T02:12:46.971Z,237.3
2024-04-06T02:13:46.974Z,246.2
2024-04-06T02:14:46.942Z,236.1
2024-04-06T02:15:46.965Z,247.9
2024-04-06T02:16:46.951Z,238.4
2024-04-06T02:17:46.969Z,240.9
2024-04-06T02:18:46.977Z,243.2
2024-04-06T02:19:46.945Z,243.6
2024-04-06T02:20:46.979Z,254.8
2024-04-06T02:21:46.973Z,232
2024-04-06T02:22:46.947Z,240.9
2024-04-06T02:23:46.969Z,239.8
2024-04-06T02:24:46.944Z,236.9
2024-04-06T02:25:46.943Z,241.1
2024-04-06T02:26:46.978Z,241.1
2024-04-06T02:27:46.951Z,239
2024-04-06T02:28:46.938Z,241.6
2024-04-06T02:29:46.966Z,253.8
2024-04-06T02:30:46.961Z,238.2
2024-04-06T02:31:46.973Z,235.3
2024-04-06T02:32:46.904Z,237.7
2024-04-06T02:33:46.981Z,240.9
2024-04-06T02:34:46.978Z,248.1
2024-04-06T02:35:46.980Z,233.1
2024-04-06T02:36:46.957Z,243.4
2024-04-06T02:37:46.960Z,236.1
2024-04-06T02:38:46.916Z,236.9
2024-04-06T02:39:46.943Z,238.2
2024-04-06T02:40:46.975Z,231.6
2024-04-06T02:41:46.954Z,235.7
2024-04-06T02:42:46.960Z,232.7
2024-04-06T02:43:46.977Z,227.5
2024-04-06T02:44:46.954Z,226.6
2024-04-06T02:45:46.963Z,241.6
2024-04-06T02:46:46.975Z,236.1
2024-04-06T02:47:46.977Z,231.1
2024-04-06T02:48:46.973Z,241.6
2024-04-06T02:49:46.977Z,206.5
2024-04-06T02:50:46.956Z,228.1
2024-04-06T02:51:46.974Z,229.3
2024-04-06T02:52:46.964Z,233.3
2024-04-06T02:53:46.972Z,229.3
2024-04-06T02:54:46.963Z,233.3
2024-04-06T02:55:46.983Z,235.3
2024-04-06T02:56:46.971Z,230.8
2024-04-06T02:57:46.978Z,233.6
2024-04-06T02:58:46.956Z,242
2024-04-06T02:59:46.973Z,235.2
2024-04-06T03:00:46.984Z,236.7
2024-04-06T03:01:46.985Z,225.8
2024-04-06T03:02:46.942Z,224.5
2024-04-06T03:03:46.987Z,232.4
2024-04-06T03:04:46.978Z,223.2
2024-04-06T03:05:46.980Z,222.9
2024-04-06T03:06:46.982Z,230.9
2024-04-06T03:07:46.956Z,222.1
2024-04-06T03:08:46.981Z,233.3
2024-04-06T03:09:46.957Z,244.1
2024-04-06T03:10:46.975Z,222.3
2024-04-06T03:11:46.938Z,230.9
2024-04-06T03:12:46.964Z,223
2024-04-06T03:13:46.945Z,221.1
2024-04-06T03:14:46.962Z,231.6
2024-04-06T03:15:46.970Z,222.9
2024-04-06T03:16:46.941Z,229.3
2024-04-06T03:17:46.980Z,237.9
2024-04-06T03:18:46.956Z,213.8
2024-04-06T03:19:46.977Z,205.4
2024-04-06T03:20:46.981Z,209
2024-04-06T03:21:46.967Z,223.5
2024-04-06T03:22:46.976Z,214.4
2024-04-06T03:23:46.954Z,226.3
2024-04-06T03:24:46.976Z,225.4
2024-04-06T03:25:46.938Z,216.5
2024-04-06T03:26:46.960Z,230.6
2024-04-06T03:27:46.955Z,211.3
2024-04-06T03:28:46.936Z,226.6
2024-04-06T03:29:46.938Z,229.3
2024-04-06T03:30:46.976Z,238.4
2024-04-06T03:31:46.980Z,236.1
2024-04-06T03:32:46.960Z,238.8
2024-04-06T03:33:46.935Z,237.1
2024-04-06T03:34:46.950Z,237.3
2024-04-06T03:35:47.010Z,234
2024-04-06T03:36:46.990Z,233.4
2024-04-06T03:37:46.952Z,230.9
2024-04-06T03:38:46.923Z,226.1
2024-04-06T03:39:46.974Z,234.4
2024-04-06T03:40:46.936Z,227.3
2024-04-06T03:41:46.949Z,234
2024-04-06T03:42:46.959Z,226.1
2024-04-06T03:43:46.976Z,225.4
2024-04-06T03:44:46.962Z,232
2024-04-06T03:45:46.975Z,224.7
2024-04-06T03:46:46.937Z,232.5
2024-04-06T03:47:46.975Z,223
2024-04-06T03:48:46.956Z,225.8
2024-04-06T03:49:46.958Z,224.2
2024-04-06T03:50:46.954Z,214.6
2024-04-06T03:51:46.958Z,243.4
2024-04-06T03:52:46.999Z,233.1
2024-04-06T03:53:46.979Z,217.9
2024-04-06T03:54:46.983Z,219.8
2024-04-06T03:55:46.972Z,214.7
2024-04-06T03:56:46.937Z,212.4
2024-04-06T03:57:46.986Z,214.4
2024-04-06T03:58:46.972Z,217.5
2024-04-06T03:59:46.977Z,213
2024-04-06T04:00:46.954Z,213.2
2024-04-06T04:01:46.977Z,213.8
2024-04-06T04:02:46.960Z,206.3
2024-04-06T04:03:46.954Z,213.8
2024-04-06T04:04:46.937Z,234.4
2024-04-06T04:05:46.973Z,234
2024-04-06T04:06:46.952Z,232.2
2024-04-06T04:07:46.919Z,229.9
2024-04-06T04:08:46.980Z,242
2024-04-06T04:09:46.967Z,225.7
2024-04-06T04:10:46.952Z,233.1
2024-04-06T04:11:46.933Z,237.9
2024-04-06T04:12:46.965Z,221.3
2024-04-06T04:13:46.996Z,235.7
2024-04-06T04:14:46.951Z,237.1
2024-04-06T04:15:46.962Z,215.1
2024-04-06T04:16:46.969Z,215.7
2024-04-06T04:17:46.954Z,213.8
2024-04-06T04:18:46.971Z,228.4
2024-04-06T04:19:46.942Z,217.9
2024-04-06T04:20:46.982Z,234.4
2024-04-06T04:21:46.972Z,229.1
2024-04-06T04:22:46.955Z,237.7
2024-04-06T04:23:46.977Z,246.2
2024-04-06T04:24:46.977Z,235.3
2024-04-06T04:25:46.957Z,246.2
2024-04-06T04:26:46.947Z,246.4
2024-04-06T04:27:46.994Z,256.5
2024-04-06T04:28:46.939Z,241.4
2024-04-06T04:29:46.973Z,260.9
2024-04-06T04:30:46.918Z,262.3
2024-04-06T04:31:46.953Z,256.5
2024-04-06T04:32:46.978Z,216.1
2024-04-06T04:33:46.962Z,261.1
2024-04-06T04:34:46.972Z,232.5
2024-04-06T04:35:46.958Z,240.3
2024-04-06T04:36:46.947Z,230.1
2024-04-06T04:37:46.940Z,221.3
2024-04-06T04:38:46.955Z,105.3
2024-04-06T04:39:46.986Z,84.5
2024-04-06T04:40:46.962Z,80
2024-04-06T04:41:46.975Z,89.7
2024-04-06T04:42:46.983Z,103.2
2024-04-06T04:43:46.960Z,87.1
2024-04-06T04:44:53.243Z,73
2024-04-06T04:45:46.983Z,88.8
2024-04-06T04:46:46.978Z,121.1
2024-04-06T04:47:46.940Z,110.5
2024-04-06T04:48:46.994Z,118.1
2024-04-06T04:49:46.977Z,133.2
2024-04-06T04:50:46.973Z,105.1
2024-04-06T04:51:46.940Z,105.9
2024-04-06T04:52:46.924Z,105.9
2024-04-06T04:53:46.924Z,132.9
2024-04-06T04:54:46.966Z,146.1
2024-04-06T04:55:46.987Z,120.9
2024-04-06T04:56:46.983Z,129.1
2024-04-06T04:57:46.959Z,117.4
2024-04-06T04:58:46.943Z,85.1
2024-04-06T04:59:46.942Z,45.4
2024-04-06T05:00:46.995Z,75.6
2024-04-06T05:01:47.631Z,76.2
2024-04-06T05:02:46.985Z,77
2024-04-06T05:03:46.937Z,58.6
2024-04-06T05:04:46.980Z,40.8
2024-04-06T05:05:46.984Z,26.1
2024-04-06T05:06:46.966Z,33.4
2024-04-06T05:07:46.985Z,80.3
2024-04-06T05:08:46.962Z,90.2
2024-04-06T05:09:46.983Z,121.3
2024-04-06T05:10:46.995Z,121.5
2024-04-06T05:11:46.981Z,37.2
2024-04-06T05:12:46.985Z,360
2024-04-06T05:13:46.983Z,9.3
2024-04-06T05:14:46.939Z,18.5
2024-04-06T05:15:46.961Z,31.3
2024-04-06T05:16:46.960Z,72.5
2024-04-06T05:17:46.961Z,115.1
2024-04-06T05:18:46.976Z,159.4
2024-04-06T05:19:46.958Z,214.9
2024-04-06T05:20:46.987Z,312.9
2024-04-06T05:21:46.928Z,335
2024-04-06T05:22:46.988Z,349.2
2024-04-06T05:23:46.978Z,330.5
2024-04-06T05:24:46.982Z,79.5
2024-04-06T05:25:46.958Z,82.8
2024-04-06T05:26:46.958Z,39
2024-04-06T05:27:46.981Z,43.5
2024-04-06T05:28:46.962Z,32.2
2024-04-06T05:29:46.972Z,18.2
2024-04-06T05:30:46.982Z,19.5
2024-04-06T05:31:46.963Z,31.5
2024-04-06T05:32:46.972Z,70.9
2024-04-06T05:33:46.956Z,324.4
2024-04-06T05:34:46.959Z,360
2024-04-06T05:35:46.962Z,14.3
2024-04-06T05:36:46.948Z,22.2
2024-04-06T05:37:46.981Z,31.1
2024-04-06T05:38:46.959Z,26.7
2024-04-06T05:39:46.945Z,18.2
2024-04-06T05:40:46.975Z,28.8
2024-04-06T05:41:46.942Z,39.6
2024-04-06T05:42:46.973Z,63.8
2024-04-06T05:43:46.973Z,78.9
2024-04-06T05:44:46.954Z,26.5
2024-04-06T05:45:46.987Z,37.5
2024-04-06T05:46:46.965Z,34.6
2024-04-06T05:47:46.968Z,44.5
2024-04-06T05:48:46.968Z,42.9
2024-04-06T05:49:46.965Z,29.4
2024-04-06T05:50:47.001Z,12.1
2024-04-06T05:51:46.958Z,5.4
2024-04-06T05:52:46.956Z,6.5
2024-04-06T05:53:46.978Z,11
2024-04-06T05:54:46.979Z,22.7
2024-04-06T05:55:46.952Z,21
2024-04-06T05:56:46.958Z,3.4
2024-04-06T05:57:46.972Z,26.5
2024-04-06T05:58:46.963Z,353.1
2024-04-06T05:59:46.973Z,8.8
2024-04-06T06:00:46.951Z,31.5
2024-04-06T06:01:46.980Z,28.1
2024-04-06T06:02:46.939Z,57.1
2024-04-06T06:03:46.941Z,93.1
2024-04-06T06:04:46.999Z,116.7
2024-04-06T06:05:46.964Z,129
2024-04-06T06:06:46.960Z,113.2
2024-04-06T06:07:46.982Z,180.2
2024-04-06T06:08:46.960Z,124
2024-04-06T06:09:46.980Z,230.6
2024-04-06T06:10:46.960Z,240.9
2024-04-06T06:11:46.974Z,263.7
2024-04-06T06:12:46.945Z,175.4
2024-04-06T06:13:46.972Z,107.2
2024-04-06T06:14:46.973Z,109.2
2024-04-06T06:15:46.958Z,129.3
2024-04-06T06:16:46.975Z,106.1
2024-04-06T06:17:46.955Z,316.4
2024-04-06T06:18:46.986Z,212.8
2024-04-06T06:19:46.963Z,139.3
2024-04-06T06:20:46.976Z,126.3
2024-04-06T06:21:46.959Z,126.1
2024-04-06T06:22:46.953Z,140.9
2024-04-06T06:23:46.958Z,133.5
2024-04-06T06:24:46.928Z,215.7
2024-04-06T06:25:46.959Z,286.9
2024-04-06T06:26:46.983Z,252.5
2024-04-06T06:27:47.482Z,230.8
2024-04-06T06:28:46.960Z,221.3
2024-04-06T06:29:46.984Z,206.7
2024-04-06T06:30:46.957Z,56.7
2024-04-06T06:31:46.965Z,86.5
2024-04-06T06:32:46.979Z,69.1
2024-04-06T06:33:46.982Z,354.8
2024-04-06T06:34:46.962Z,332.3
2024-04-06T06:40:47.057Z,207.6
2024-04-06T06:41:46.970Z,223.5
2024-04-06T06:42:46.942Z,248.1
2024-04-06T06:43:46.975Z,274.5
2024-04-06T06:44:46.918Z,255.4
2024-04-06T06:45:46.982Z,184.2
2024-04-06T06:46:46.965Z,352.5
2024-04-06T06:47:46.984Z,12.1
2024-04-06T06:48:46.941Z,350
2024-04-06T06:49:46.961Z,5.1
2024-04-06T06:50:46.934Z,18.7
2024-04-06T06:51:46.979Z,32
2024-04-06T06:52:46.970Z,14.3
2024-04-06T06:53:46.964Z,24.9
2024-04-06T06:54:46.985Z,359.1
2024-04-06T06:55:46.984Z,7.1
2024-04-06T06:56:46.938Z,20.5
2024-04-06T06:57:46.961Z,37.9
2024-04-06T06:58:46.966Z,3.7
2024-04-06T07:00:47.026Z,54
2024-04-06T07:01:46.921Z,78.1
2024-04-06T07:02:46.945Z,85.4
2024-04-06T07:03:46.980Z,65.2
2024-04-06T07:04:46.967Z,123.8
2024-04-06T07:05:46.942Z,19
2024-04-06T07:07:46.971Z,19.5
2024-04-06T07:09:02.423Z,6.5
2024-04-06T07:09:46.980Z,19.7
2024-04-06T07:10:46.923Z,24.2
2024-04-06T07:11:46.975Z,20.5
2024-04-06T07:12:46.985Z,34.2
2024-04-06T07:13:46.960Z,19
2024-04-06T07:14:46.972Z,27.4
2024-04-06T07:15:46.987Z,12.1
2024-04-06T07:16:46.981Z,13.7
2024-04-06T07:17:46.963Z,18.7
2024-04-06T07:18:46.974Z,37.5
2024-04-06T07:19:46.940Z,49.9
2024-04-06T07:20:46.957Z,20.5
2024-04-06T07:21:46.980Z,9.3
2024-04-06T07:22:46.976Z,12.6
2024-04-06T07:23:46.967Z,5.1
2024-04-06T07:24:46.963Z,5.9
2024-04-06T07:25:47.622Z,23
2024-04-06T07:26:46.986Z,4
2024-04-06T07:27:46.982Z,16.4
2024-04-06T07:28:46.963Z,5.1
2024-04-06T07:29:46.962Z,21.3
2024-04-06T07:30:46.983Z,32.8
2024-04-06T07:31:46.989Z,21.3
2024-04-06T07:32:46.984Z,7.9
2024-04-06T07:33:46.960Z,24.9
2024-04-06T07:34:46.950Z,11
2024-04-06T07:35:46.989Z,354
2024-04-06T07:36:46.942Z,19.7
2024-04-06T07:37:46.940Z,7.4
2024-04-06T07:39:46.984Z,18.5
2024-04-06T07:40:46.990Z,9.3
2024-04-06T07:41:46.992Z,16.4
2024-04-06T07:42:46.960Z,11.5
2024-04-06T07:43:46.983Z,11.8
2024-04-06T07:44:46.991Z,6.2
2024-04-06T07:45:46.938Z,27.9
2024-04-06T07:46:46.984Z,19
2024-04-06T07:47:46.994Z,31.5
2024-04-06T07:48:46.974Z,293.7
2024-04-06T07:49:46.964Z,217.2
2024-04-06T07:50:46.936Z,66.7
2024-04-06T07:51:46.931Z,358.8
2024-04-06T07:52:46.982Z,30.1
2024-04-06T07:53:46.958Z,9
2024-04-06T07:54:46.949Z,25.6
2024-04-06T07:55:47.001Z,112
2024-04-06T07:56:46.984Z,94
2024-04-06T07:57:46.991Z,86.5
2024-04-06T07:58:46.959Z,65
2024-04-06T07:59:46.962Z,91.7
2024-04-06T08:00:46.938Z,102.4
2024-04-06T08:01:46.945Z,161.2
2024-04-06T08:02:46.966Z,6.8
2024-04-06T08:03:46.977Z,23.7
2024-04-06T08:04:46.940Z,148.8
2024-04-06T08:05:46.985Z,84
2024-04-06T08:06:46.964Z,80.9
2024-04-06T08:07:46.925Z,88.2
2024-04-06T08:08:46.968Z,78.4
2024-04-06T08:09:46.979Z,157.7
2024-04-06T08:10:46.937Z,123.2
2024-04-06T08:11:46.967Z,68.1
2024-04-06T08:12:46.991Z,89.1
2024-04-06T08:13:46.962Z,159.4
2024-04-06T08:14:46.941Z,136.7
2024-04-06T08:15:46.956Z,118.3
2024-04-06T08:16:46.981Z,55.5
2024-04-06T08:17:46.975Z,93.4
2024-04-06T08:18:46.960Z,97.1
2024-04-06T08:19:46.961Z,87.7
2024-04-06T08:20:46.974Z,107.2
2024-04-06T08:21:46.931Z,15.1
2024-04-06T08:22:46.980Z,60.7
2024-04-06T08:23:46.958Z,133.8
2024-04-06T08:24:46.938Z,110.8
2024-04-06T08:25:46.977Z,114.7
2024-04-06T08:26:46.939Z,150.7
2024-04-06T08:27:46.947Z,84.2
2024-04-06T08:28:46.974Z,79.7
2024-04-06T08:29:46.962Z,8.8
2024-04-06T08:30:46.975Z,85.9
2024-04-06T08:31:46.970Z,90.5
2024-04-06T08:32:46.980Z,93.4
2024-04-06T08:33:46.979Z,102.4
2024-04-06T08:34:46.980Z,65
2024-04-06T08:35:46.968Z,71.7
2024-04-06T08:36:46.984Z,26.3
2024-04-06T08:37:46.975Z,23
2024-04-06T08:38:46.960Z,104
2024-04-06T08:39:47.001Z,78.9
2024-04-06T08:40:46.980Z,104.3
2024-04-06T08:41:46.954Z,106.9
2024-04-06T08:42:46.956Z,83.1
2024-04-06T08:43:46.942Z,121.3
2024-04-06T08:44:46.973Z,92
2024-04-06T08:45:46.982Z,119
2024-04-06T08:46:46.978Z,82.8
2024-04-06T08:47:46.945Z,92.2
2024-04-06T08:48:46.993Z,80.6
2024-04-06T08:49:46.980Z,143.1
2024-04-06T08:50:46.944Z,70.2
2024-04-06T08:51:46.921Z,103.2
2024-04-06T08:52:46.956Z,158.1
2024-04-06T08:53:46.974Z,74.3
2024-04-06T08:54:46.982Z,101.5
2024-04-06T08:55:46.940Z,110.8
2024-04-06T08:56:46.987Z,127.2
2024-04-06T08:57:46.978Z,123.4
2024-04-06T08:58:46.974Z,128.8
2024-04-06T08:59:46.981Z,165.1
2024-04-06T09:00:46.962Z,127.5
2024-04-06T09:01:46.960Z,159.1
2024-04-06T09:02:46.982Z,130.3
2024-04-06T09:03:46.976Z,87.9
2024-04-06T09:04:46.978Z,104
2024-04-06T09:05:46.973Z,106.6
2024-04-06T09:06:46.980Z,81.1
2024-04-06T09:07:46.947Z,88.8
2024-04-06T09:08:46.960Z,105.6
2024-04-06T09:09:46.960Z,270
2024-04-06T09:10:46.965Z,129.3
2024-04-06T09:11:46.920Z,191.8
2024-04-06T09:12:46.980Z,206.1
2024-04-06T09:13:46.972Z,198
2024-04-06T09:14:46.989Z,191
2024-04-06T09:15:46.975Z,161.9
2024-04-06T09:16:46.983Z,120.9
2024-04-06T09:17:46.977Z,175.4
2024-04-06T09:18:46.989Z,141.1
2024-04-06T09:19:46.989Z,133.9
2024-04-06T09:20:46.962Z,122.8
2024-04-06T09:21:46.958Z,145.2
2024-04-06T09:22:46.969Z,122.6
2024-04-06T09:23:46.962Z,135.7
2024-04-06T09:24:46.936Z,137.3
2024-04-06T09:25:46.956Z,124.6
2024-04-06T09:26:46.996Z,155.5
2024-04-06T09:27:46.998Z,115.1
2024-04-06T09:28:46.990Z,137.3
2024-04-06T09:29:46.959Z,177.9
2024-04-06T09:30:46.966Z,142.4
2024-04-06T09:31:46.983Z,102.4
2024-04-06T09:32:46.986Z,146.1
2024-04-06T09:33:46.981Z,153.8
2024-04-06T09:34:46.941Z,112.2
2024-04-06T09:35:46.961Z,150.5
2024-04-06T09:36:46.982Z,158.9
2024-04-06T09:37:46.943Z,154.5
2024-04-06T09:38:46.989Z,156.7
2024-04-06T09:39:46.969Z,155
2024-04-06T09:40:47.000Z,166.2
2024-04-06T09:41:46.965Z,143.4
2024-04-06T09:42:46.983Z,140.4
2024-04-06T09:43:46.999Z,86.8
2024-04-06T09:44:46.958Z,192.6
2024-04-06T09:45:46.971Z,172.5
2024-04-06T09:46:46.939Z,118.5
2024-04-06T09:47:46.935Z,126.3
2024-04-06T09:48:46.948Z,116.1
2024-04-06T09:49:46.977Z,163.8
2024-04-06T09:50:46.975Z,129.5
2024-04-06T09:51:46.949Z,90
2024-04-06T09:52:46.967Z,80.3
2024-04-06T09:53:46.936Z,103.7
2024-04-06T09:54:46.972Z,94.8
2024-04-06T09:55:46.997Z,104
2024-04-06T09:56:46.984Z,212.2
2024-04-06T09:57:46.976Z,109
2024-04-06T09:58:46.950Z,142.5
2024-04-06T09:59:46.973Z,115.6
2024-04-06T10:00:46.985Z,148.6
2024-04-06T10:01:46.938Z,160.9
2024-04-06T10:02:46.952Z,284.3
2024-04-06T10:03:46.966Z,161.9
2024-04-06T10:04:46.969Z,169.5
2024-04-06T10:05:46.969Z,136.6
2024-04-06T10:06:46.927Z,223.8
2024-04-06T10:07:46.972Z,198.5
2024-04-06T10:08:46.939Z,240.7
2024-04-06T10:09:46.983Z,149.8
2024-04-06T10:10:46.933Z,143.6
2024-04-06T10:11:46.968Z,181.4
2024-04-06T10:12:46.957Z,197.7
2024-04-06T10:13:46.976Z,152
2024-04-06T10:14:46.978Z,127.4
2024-04-06T10:15:46.942Z,164.3
2024-04-06T10:16:46.953Z,190.4
2024-04-06T10:17:46.973Z,117
2024-04-06T10:18:46.975Z,124.9
2024-04-06T10:19:46.974Z,96.8
2024-04-06T10:20:46.958Z,98.8
2024-04-06T10:21:46.970Z,80.3
2024-04-06T10:22:46.932Z,122.6
2024-04-06T10:23:46.979Z,124.7
2024-04-06T10:24:46.971Z,167.8
2024-04-06T10:25:46.975Z,179.4
2024-04-06T10:26:46.972Z,167.5
2024-04-06T10:27:46.923Z,126.8
2024-04-06T10:28:46.964Z,143.1
2024-04-06T10:29:46.954Z,144.2
2024-04-06T10:30:46.967Z,136.7
2024-04-06T10:31:47.852Z,155.2
2024-04-06T10:32:46.949Z,185.1
2024-04-06T10:33:46.939Z,146.1
2024-04-06T10:34:50.891Z,147.5
2024-04-06T10:35:46.978Z,146.7
2024-04-06T10:36:46.985Z,126.8
2024-04-06T10:37:46.961Z,207.6
2024-04-06T10:38:46.955Z,134.2
2024-04-06T10:39:46.981Z,99.6
2024-04-06T10:40:46.977Z,135.2
2024-04-06T10:41:46.956Z,117.9
2024-04-06T10:42:46.940Z,125.3
2024-04-06T10:43:46.935Z,207
2024-04-06T10:44:46.974Z,164
2024-04-06T10:45:46.977Z,144.2
2024-04-06T10:46:46.973Z,159.1
2024-04-06T10:47:46.980Z,183.4
2024-04-06T10:48:46.962Z,173.4
2024-04-06T10:49:46.956Z,170.6
2024-04-06T10:50:46.979Z,165.6
2024-04-06T10:51:46.956Z,163.5
2024-04-06T10:52:46.996Z,125.5
2024-04-06T10:53:46.975Z,124.7
2024-04-06T10:54:46.982Z,153.4
2024-04-06T10:55:46.978Z,125.5
2024-04-06T10:56:46.977Z,141.6
2024-04-06T10:57:46.976Z,100.7
2024-04-06T10:58:46.978Z,45
2024-04-06T10:59:46.942Z,119.6
2024-04-06T11:00:46.977Z,111.3
2024-04-06T11:01:46.967Z,131.6
2024-04-06T11:02:46.953Z,131
2024-04-06T11:03:46.960Z,148.2
2024-04-06T11:04:46.952Z,111.5
2024-04-06T11:05:46.946Z,134.1
2024-04-06T11:06:46.978Z,163.8
2024-04-06T11:07:46.972Z,127.4
2024-04-06T11:08:46.938Z,117.9
2024-04-06T11:09:46.956Z,127.2
2024-04-06T11:10:46.971Z,117.2
2024-04-06T11:11:46.967Z,125.5
2024-04-06T11:12:46.957Z,173.1
2024-04-06T11:13:46.985Z,116.7
2024-04-06T11:14:46.956Z,120.7
2024-04-06T11:15:46.935Z,86.2
2024-04-06T11:16:46.962Z,131
2024-04-06T11:17:46.977Z,121.5
2024-04-06T11:18:47.008Z,138.4
2024-04-06T11:19:46.970Z,164
2024-04-06T11:20:46.985Z,135.4
2024-04-06T11:21:46.985Z,155.2
2024-04-06T11:22:46.977Z,133.9
2024-04-06T11:23:46.947Z,155
2024-04-06T11:24:46.968Z,106.1
2024-04-06T11:25:46.975Z,97.4
2024-04-06T11:26:46.970Z,146.1
2024-04-06T11:27:46.976Z,141.3
2024-04-06T11:28:46.979Z,159.4
2024-04-06T11:29:46.959Z,136.4
2024-04-06T11:30:46.955Z,150.1
2024-04-06T11:31:46.953Z,141.8
2024-04-06T11:32:46.961Z,184
2024-04-06T11:33:47.013Z,179.1
2024-04-06T11:34:46.963Z,146.5
2024-04-06T11:35:46.978Z,134.7
2024-04-06T11:36:46.957Z,155.2
2024-04-06T11:37:46.949Z,175.4
2024-04-06T11:38:46.955Z,131.6
2024-04-06T11:39:46.963Z,144.4
2024-04-06T11:40:46.983Z,132.4
2024-04-06T11:41:46.952Z,122.2
2024-04-06T11:42:46.957Z,122.8
2024-04-06T11:43:46.973Z,106.1
2024-04-06T11:44:46.989Z,119.6
2024-04-06T11:45:46.984Z,123.6
2024-04-06T11:46:46.982Z,128.3
2024-04-06T11:47:46.976Z,122.6
2024-04-06T11:48:46.950Z,118.8
2024-04-06T11:49:46.968Z,90.5
2024-04-06T11:50:46.948Z,90
2024-04-06T11:51:46.933Z,117.6
2024-04-06T11:52:46.958Z,131.6
2024-04-06T11:53:50.310Z,145.7
2024-04-06T11:54:46.922Z,156
2024-04-06T11:55:46.966Z,178.5
2024-04-06T11:56:46.988Z,164.3
2024-04-06T11:57:46.977Z,209
2024-04-06T11:58:46.976Z,90.5
2024-04-06T11:59:46.957Z,124.4
2024-04-06T12:00:46.961Z,121.7
2024-04-06T12:01:46.982Z,152
2024-04-06T12:02:46.962Z,123
2024-04-06T12:03:46.952Z,126.5
2024-04-06T12:04:46.958Z,170.3
2024-04-06T12:05:46.968Z,78.4
2024-04-06T12:06:46.977Z,127.7
2024-04-06T12:07:46.992Z,149.6
2024-04-06T12:08:46.973Z,125.1
2024-04-06T12:09:46.973Z,125.7
2024-04-06T12:10:47.006Z,105.6
2024-04-06T12:11:46.995Z,192.9
2024-04-06T12:12:46.985Z,124.6
2024-04-06T12:13:46.992Z,139.4
2024-04-06T12:14:46.986Z,136.1
2024-04-06T12:15:46.980Z,169.5
2024-04-06T12:16:46.985Z,181.7
2024-04-06T12:17:46.959Z,131.3
2024-04-06T12:18:46.928Z,130.8
2024-04-06T12:19:46.994Z,125.5
2024-04-06T12:20:46.978Z,114.7
2024-04-06T12:21:46.972Z,111
2024-04-06T12:22:46.976Z,172.8
2024-04-06T12:23:46.975Z,195.3
2024-04-06T12:24:46.956Z,113.2
2024-04-06T12:25:46.939Z,159.9
2024-04-06T12:26:46.958Z,130.3
2024-04-06T12:27:46.973Z,84.8
2024-04-06T12:28:46.952Z,128.4
2024-04-06T12:29:46.956Z,127.5
2024-04-06T12:30:46.951Z,147.7
2024-04-06T12:31:46.975Z,139.1
2024-04-06T12:32:46.954Z,125.5
2024-04-06T12:33:46.977Z,139.1
2024-04-06T12:34:46.974Z,137.5
2024-04-06T12:35:46.939Z,165.4
2024-04-06T12:36:46.977Z,163.8
2024-04-06T12:37:46.970Z,145.7
2024-04-06T12:38:46.979Z,144
2024-04-06T12:39:46.959Z,208.3
2024-04-06T12:40:46.940Z,174
2024-04-06T12:41:46.975Z,120.3
2024-04-06T12:42:46.922Z,161.7
2024-04-06T12:43:46.976Z,179.7
2024-04-06T12:44:46.942Z,157.9
2024-04-06T12:45:46.970Z,168.6
2024-04-06T12:46:46.986Z,173.4
2024-04-06T12:47:46.964Z,154.3
2024-04-06T12:48:46.936Z,167.8
2024-04-06T12:49:46.975Z,210.7
2024-04-06T12:50:46.957Z,171.1
2024-04-06T12:51:46.955Z,168.4
2024-04-06T12:52:46.979Z,200
2024-04-06T12:53:46.949Z,185.1
2024-04-06T12:54:46.959Z,153.8
2024-04-06T12:55:46.941Z,147.9
2024-04-06T12:56:49.744Z,166.5
2024-04-06T12:57:46.977Z,144.4
2024-04-06T12:58:46.971Z,135.2
2024-04-06T12:59:46.975Z,192.9
2024-04-06T13:00:46.981Z,179.7
2024-04-06T13:01:46.994Z,145.5
2024-04-06T13:02:46.953Z,119.8
2024-04-06T13:03:56.534Z,164.8
2024-04-06T13:04:46.971Z,192.6
2024-04-06T13:05:46.977Z,136.7
2024-04-06T13:06:46.948Z,156.4
2024-04-06T13:07:50.485Z,173.4
2024-04-06T13:08:46.975Z,153.8
2024-04-06T13:09:46.966Z,156.7
2024-04-06T13:10:46.967Z,199.7
2024-04-06T13:11:46.957Z,186.8
2024-04-06T13:12:46.972Z,167.5